Aérodrome :







RETROUVEZ-NOUS SUR...

 
LOGIN :

S'inscrire | Disclaimer

   EN    FR    IT 

 









Légende :    VFR   VFR Marginal   IFR   IFR Intensif   IFR Très Intensif
Visi : 
Plafond : 
>= 8 km
>= 3000ft
5 à 8 km
1000 à 3000 ft
1500m à 5 km
500 à 1000 ft
800 à 1500m
200 à 500 ft
< 800m
< 200 ft
Symboles :   Orages  Brouillard  Fortes neiges  Fortes précipitations  Vent > 20 kt







- Altitude de l'aérodrome : 76 ft
- Code IATA : EGS


BIEG - Egilsstaðir

DERNIER METAR :
  • 251300Z 01013KT CAVOK 10/04 Q1005

METARs EXPIRÉS :
  • 251200Z 01014KT CAVOK 12/05 Q1005
  • 251100Z 01011KT CAVOK 13/04 Q1005

TAF TAF BIEG
Valide du 25 à 12h jusqu'au 26 à 12h UTC


251057Z 2512/2612 03012KT 9999 FEW025 TX11/2512Z TN03/2521Z
BECMG 2517/2519 BKN015 OVC030
TEMPO 2520/2604 RA BKN010 OVC015
PROB40
TEMPO 2601/2608 2000 BR OVC003
Pas de NOTAMs connus pour ce terrain.



MET'MAP, la Météo Aéronautique d'un coup d'oeil ! - Copyright ORBIFLY Décembre 2007 - Disclaimer

ORBIFLY MET'MAP TEAM :

Programmation & Développement : Alexandra Zaïnal
Conception & Développement : Baudouin d'Aumeries
Co-Programmation & Développement : Marc-Olivier Méhu
Soutien technique & logistique : Manuel Goepfert

Contact : metmap@orbifly.com




SOURCES & CREDITS :

   NOAA